sensor_id;sensor_type;location;lat;lon;timestamp;pressure;altitude;pressure_sealevel;temperature;humidity
74346;BME280;62776;50.518;6.732;2024-01-27T00:00:14;98272.50;;;1.88;100.00
74346;BME280;62776;50.518;6.732;2024-01-27T00:03:04;98269.94;;;1.88;100.00
74346;BME280;62776;50.518;6.732;2024-01-27T00:05:50;98271.72;;;1.89;100.00
74346;BME280;62776;50.518;6.732;2024-01-27T00:08:38;98265.72;;;1.89;100.00
74346;BME280;62776;50.518;6.732;2024-01-27T00:11:26;98256.19;;;1.86;100.00
74346;BME280;62776;50.518;6.732;2024-01-27T00:14:12;98254.41;;;1.85;100.00
74346;BME280;62776;50.518;6.732;2024-01-27T00:17:01;98247.59;;;1.86;100.00
74346;BME280;62776;50.518;6.732;2024-01-27T00:19:47;98256.75;;;1.81;100.00
74346;BME280;62776;50.518;6.732;2024-01-27T00:22:34;98258.50;;;1.82;100.00
74346;BME280;62776;50.518;6.732;2024-01-27T00:25:21;98263.50;;;1.78;100.00
74346;BME280;62776;50.518;6.732;2024-01-27T00:28:07;98277.09;;;1.77;100.00
74346;BME280;62776;50.518;6.732;2024-01-27T00:31:03;98265.81;;;1.74;100.00
74346;BME280;62776;50.518;6.732;2024-01-27T00:33:49;98259.06;;;1.76;100.00
74346;BME280;62776;50.518;6.732;2024-01-27T00:36:40;98261.41;;;1.71;100.00
74346;BME280;62776;50.518;6.732;2024-01-27T00:39:35;98261.41;;;1.71;100.00
74346;BME280;62776;50.518;6.732;2024-01-27T00:42:22;98267.41;;;1.72;100.00
74346;BME280;62776;50.518;6.732;2024-01-27T00:45:10;98273.34;;;1.71;100.00
74346;BME280;62776;50.518;6.732;2024-01-27T00:48:00;98269.59;;;1.64;100.00
74346;BME280;62776;50.518;6.732;2024-01-27T00:50:46;98265.47;;;1.68;100.00
74346;BME280;62776;50.518;6.732;2024-01-27T00:53:33;98269.44;;;1.61;100.00
74346;BME280;62776;50.518;6.732;2024-01-27T00:56:19;98267.44;;;1.56;100.00
74346;BME280;62776;50.518;6.732;2024-01-27T00:59:06;98272.31;;;1.51;100.00
74346;BME280;62776;50.518;6.732;2024-01-27T01:01:52;98273.91;;;1.49;100.00
74346;BME280;62776;50.518;6.732;2024-01-27T01:04:38;98286.34;;;1.42;100.00
74346;BME280;62776;50.518;6.732;2024-01-27T01:07:24;98283.66;;;1.40;100.00
74346;BME280;62776;50.518;6.732;2024-01-27T01:10:10;98284.22;;;1.35;100.00
74346;BME280;62776;50.518;6.732;2024-01-27T01:12:57;98283.28;;;1.33;100.00
74346;BME280;62776;50.518;6.732;2024-01-27T01:15:45;98281.19;;;1.26;100.00
74346;BME280;62776;50.518;6.732;2024-01-27T01:18:31;98275.19;;;1.25;100.00
74346;BME280;62776;50.518;6.732;2024-01-27T01:21:20;98287.22;;;1.26;100.00
74346;BME280;62776;50.518;6.732;2024-01-27T01:24:15;98296.47;;;1.24;100.00
74346;BME280;62776;50.518;6.732;2024-01-27T01:27:01;98281.75;;;1.20;100.00
74346;BME280;62776;50.518;6.732;2024-01-27T01:29:48;98292.78;;;1.19;100.00
74346;BME280;62776;50.518;6.732;2024-01-27T01:32:35;98304.63;;;1.17;100.00
74346;BME280;62776;50.518;6.732;2024-01-27T01:35:21;98303.03;;;1.19;100.00
74346;BME280;62776;50.518;6.732;2024-01-27T01:38:08;98296.84;;;1.15;100.00
74346;BME280;62776;50.518;6.732;2024-01-27T01:40:54;98300.41;;;1.17;100.00
74346;BME280;62776;50.518;6.732;2024-01-27T01:43:40;98306.25;;;1.15;100.00
74346;BME280;62776;50.518;6.732;2024-01-27T01:46:29;98305.91;;;1.09;100.00
74346;BME280;62776;50.518;6.732;2024-01-27T01:49:16;98306.06;;;1.12;100.00
74346;BME280;62776;50.518;6.732;2024-01-27T01:52:05;98311.03;;;1.09;100.00
74346;BME280;62776;50.518;6.732;2024-01-27T01:54:53;98313.50;;;1.07;100.00
74346;BME280;62776;50.518;6.732;2024-01-27T01:57:44;98312.13;;;0.98;100.00
74346;BME280;62776;50.518;6.732;2024-01-27T02:00:31;98302.94;;;1.01;100.00
74346;BME280;62776;50.518;6.732;2024-01-27T02:03:18;98307.19;;;1.01;100.00
74346;BME280;62776;50.518;6.732;2024-01-27T02:06:05;98303.66;;;0.99;100.00
74346;BME280;62776;50.518;6.732;2024-01-27T02:08:51;98299.31;;;0.98;100.00
74346;BME280;62776;50.518;6.732;2024-01-27T02:11:38;98307.88;;;0.98;100.00
74346;BME280;62776;50.518;6.732;2024-01-27T02:14:24;98299.94;;;0.94;100.00
74346;BME280;62776;50.518;6.732;2024-01-27T02:17:12;98306.75;;;0.93;100.00
74346;BME280;62776;50.518;6.732;2024-01-27T02:19:58;98300.75;;;0.93;100.00
74346;BME280;62776;50.518;6.732;2024-01-27T02:22:46;98304.09;;;0.92;100.00
74346;BME280;62776;50.518;6.732;2024-01-27T02:25:35;98305.59;;;0.88;100.00
74346;BME280;62776;50.518;6.732;2024-01-27T02:28:23;98307.38;;;0.89;100.00
74346;BME280;62776;50.518;6.732;2024-01-27T02:31:10;98305.59;;;0.88;100.00
74346;BME280;62776;50.518;6.732;2024-01-27T02:33:57;98303.75;;;0.86;100.00
74346;BME280;62776;50.518;6.732;2024-01-27T02:36:43;98311.44;;;0.86;100.00
74346;BME280;62776;50.518;6.732;2024-01-27T02:39:29;98301.75;;;0.80;100.00
74346;BME280;62776;50.518;6.732;2024-01-27T02:42:16;98305.03;;;0.78;100.00
74346;BME280;62776;50.518;6.732;2024-01-27T02:45:03;98307.41;;;0.75;100.00
74346;BME280;62776;50.518;6.732;2024-01-27T02:47:50;98301.56;;;0.77;100.00
74346;BME280;62776;50.518;6.732;2024-01-27T02:50:36;98311.66;;;0.74;100.00
74346;BME280;62776;50.518;6.732;2024-01-27T02:53:22;98312.34;;;0.72;100.00
74346;BME280;62776;50.518;6.732;2024-01-27T02:56:08;98305.38;;;0.69;100.00
74346;BME280;62776;50.518;6.732;2024-01-27T02:58:54;98310.44;;;0.68;100.00
74346;BME280;62776;50.518;6.732;2024-01-27T03:01:42;98316.16;;;0.64;100.00
74346;BME280;62776;50.518;6.732;2024-01-27T03:04:28;98307.09;;;0.69;100.00
74346;BME280;62776;50.518;6.732;2024-01-27T03:07:14;98312.88;;;0.66;100.00
74346;BME280;62776;50.518;6.732;2024-01-27T03:10:00;98308.59;;;0.65;100.00
74346;BME280;62776;50.518;6.732;2024-01-27T03:12:47;98315.38;;;0.65;100.00
74346;BME280;62776;50.518;6.732;2024-01-27T03:15:33;98302.59;;;0.65;100.00
74346;BME280;62776;50.518;6.732;2024-01-27T03:18:20;98300.91;;;0.65;100.00
74346;BME280;62776;50.518;6.732;2024-01-27T03:21:07;98302.41;;;0.62;100.00
74346;BME280;62776;50.518;6.732;2024-01-27T03:23:54;98300.75;;;0.62;100.00
74346;BME280;62776;50.518;6.732;2024-01-27T03:26:41;98308.50;;;0.64;100.00
74346;BME280;62776;50.518;6.732;2024-01-27T03:29:27;98302.50;;;0.63;100.00
74346;BME280;62776;50.518;6.732;2024-01-27T03:32:16;98309.84;;;0.57;100.00
74346;BME280;62776;50.518;6.732;2024-01-27T03:35:04;98313.28;;;0.57;100.00
74346;BME280;62776;50.518;6.732;2024-01-27T03:37:51;98306.56;;;0.59;100.00
74346;BME280;62776;50.518;6.732;2024-01-27T03:40:37;98314.25;;;0.59;100.00
74346;BME280;62776;50.518;6.732;2024-01-27T03:43:23;98317.41;;;0.55;100.00
74346;BME280;62776;50.518;6.732;2024-01-27T03:46:09;98319.97;;;0.55;100.00
74346;BME280;62776;50.518;6.732;2024-01-27T03:48:56;98316.44;;;0.53;100.00
74346;BME280;62776;50.518;6.732;2024-01-27T03:51:42;98309.41;;;0.49;100.00
74346;BME280;62776;50.518;6.732;2024-01-27T03:54:28;98312.75;;;0.48;100.00
74346;BME280;62776;50.518;6.732;2024-01-27T03:57:14;98320.34;;;0.47;100.00
74346;BME280;62776;50.518;6.732;2024-01-27T04:00:00;98325.44;;;0.47;100.00
74346;BME280;62776;50.518;6.732;2024-01-27T04:02:47;98333.13;;;0.47;100.00
74346;BME280;62776;50.518;6.732;2024-01-27T04:05:33;98339.94;;;0.46;100.00
74346;BME280;62776;50.518;6.732;2024-01-27T04:08:19;98336.38;;;0.44;100.00
74346;BME280;62776;50.518;6.732;2024-01-27T04:11:21;98330.78;;;0.35;100.00
74346;BME280;62776;50.518;6.732;2024-01-27T04:14:14;98325.72;;;0.37;100.00
74346;BME280;62776;50.518;6.732;2024-01-27T04:17:03;98334.47;;;0.40;100.00
74346;BME280;62776;50.518;6.732;2024-01-27T04:19:52;98332.50;;;0.36;100.00
74346;BME280;62776;50.518;6.732;2024-01-27T04:22:41;98340.47;;;0.41;100.00
74346;BME280;62776;50.518;6.732;2024-01-27T04:25:28;98344.00;;;0.43;100.00
74346;BME280;62776;50.518;6.732;2024-01-27T04:28:14;98345.47;;;0.39;100.00
74346;BME280;62776;50.518;6.732;2024-01-27T04:31:00;98341.69;;;0.47;100.00
74346;BME280;62776;50.518;6.732;2024-01-27T04:33:46;98345.56;;;0.55;100.00
74346;BME280;62776;50.518;6.732;2024-01-27T04:36:33;98344.13;;;0.60;100.00
74346;BME280;62776;50.518;6.732;2024-01-27T04:39:19;98340.78;;;0.62;100.00
74346;BME280;62776;50.518;6.732;2024-01-27T04:42:06;98346.25;;;0.68;100.00
74346;BME280;62776;50.518;6.732;2024-01-27T04:44:52;98358.28;;;0.69;100.00
74346;BME280;62776;50.518;6.732;2024-01-27T04:47:39;98359.47;;;0.75;100.00
74346;BME280;62776;50.518;6.732;2024-01-27T04:50:28;98361.97;;;0.74;100.00
74346;BME280;62776;50.518;6.732;2024-01-27T04:53:15;98357.16;;;0.80;100.00
74346;BME280;62776;50.518;6.732;2024-01-27T04:56:04;98356.31;;;0.79;100.00
74346;BME280;62776;50.518;6.732;2024-01-27T04:58:54;98345.09;;;0.77;100.00
74346;BME280;62776;50.518;6.732;2024-01-27T05:01:43;98351.00;;;0.76;100.00
74346;BME280;62776;50.518;6.732;2024-01-27T05:04:29;98348.47;;;0.76;100.00
74346;BME280;62776;50.518;6.732;2024-01-27T05:07:18;98352.44;;;0.71;100.00
74346;BME280;62776;50.518;6.732;2024-01-27T05:10:05;98360.28;;;0.74;100.00
74346;BME280;62776;50.518;6.732;2024-01-27T05:12:54;98355.06;;;0.73;100.00
74346;BME280;62776;50.518;6.732;2024-01-27T05:15:42;98361.16;;;0.75;100.00
74346;BME280;62776;50.518;6.732;2024-01-27T05:18:28;98364.69;;;0.77;100.00
74346;BME280;62776;50.518;6.732;2024-01-27T05:21:15;98352.75;;;0.77;100.00
74346;BME280;62776;50.518;6.732;2024-01-27T05:24:01;98355.41;;;0.79;100.00
74346;BME280;62776;50.518;6.732;2024-01-27T05:26:47;98339.34;;;0.81;100.00
74346;BME280;62776;50.518;6.732;2024-01-27T05:29:33;98335.28;;;0.85;100.00
74346;BME280;62776;50.518;6.732;2024-01-27T05:32:20;98337.22;;;0.89;100.00
74346;BME280;62776;50.518;6.732;2024-01-27T05:35:07;98346.56;;;0.88;100.00
74346;BME280;62776;50.518;6.732;2024-01-27T05:37:53;98351.13;;;0.94;100.00
74346;BME280;62776;50.518;6.732;2024-01-27T05:40:40;98347.00;;;0.96;100.00
74346;BME280;62776;50.518;6.732;2024-01-27T05:43:26;98339.31;;;0.96;100.00
74346;BME280;62776;50.518;6.732;2024-01-27T05:46:12;98344.44;;;0.96;100.00
74346;BME280;62776;50.518;6.732;2024-01-27T05:48:59;98344.44;;;0.96;100.00
74346;BME280;62776;50.518;6.732;2024-01-27T05:51:48;98343.63;;;0.97;100.00
74346;BME280;62776;50.518;6.732;2024-01-27T05:54:36;98344.44;;;0.96;100.00
74346;BME280;62776;50.518;6.732;2024-01-27T05:57:22;98343.38;;;0.92;100.00
74346;BME280;62776;50.518;6.732;2024-01-27T06:00:13;98349.84;;;0.86;100.00
74346;BME280;62776;50.518;6.732;2024-01-27T06:03:03;98345.53;;;0.85;100.00
74346;BME280;62776;50.518;6.732;2024-01-27T06:05:51;98338.47;;;0.81;100.00
74346;BME280;62776;50.518;6.732;2024-01-27T06:08:38;98337.09;;;0.71;100.00
74346;BME280;62776;50.518;6.732;2024-01-27T06:11:25;98349.72;;;0.68;100.00
74346;BME280;62776;50.518;6.732;2024-01-27T06:14:12;98351.19;;;0.65;100.00
74346;BME280;62776;50.518;6.732;2024-01-27T06:16:58;98354.22;;;0.57;100.00
74346;BME280;62776;50.518;6.732;2024-01-27T06:19:44;98349.53;;;0.50;100.00
74346;BME280;62776;50.518;6.732;2024-01-27T06:22:31;98342.56;;;0.48;100.00
74346;BME280;62776;50.518;6.732;2024-01-27T06:25:19;98346.63;;;0.44;100.00
74346;BME280;62776;50.518;6.732;2024-01-27T06:28:08;98341.00;;;0.35;100.00
74346;BME280;62776;50.518;6.732;2024-01-27T06:30:55;98339.41;;;0.37;100.00
74346;BME280;62776;50.518;6.732;2024-01-27T06:33:45;98343.97;;;0.28;100.00
74346;BME280;62776;50.518;6.732;2024-01-27T06:36:31;98347.50;;;0.30;100.00
74346;BME280;62776;50.518;6.732;2024-01-27T06:39:18;98353.25;;;0.26;100.00
74346;BME280;62776;50.518;6.732;2024-01-27T06:42:09;98362.41;;;0.23;100.00
74346;BME280;62776;50.518;6.732;2024-01-27T06:44:55;98352.72;;;0.17;100.00
74346;BME280;62776;50.518;6.732;2024-01-27T06:47:42;98361.09;;;0.15;100.00
74346;BME280;62776;50.518;6.732;2024-01-27T06:50:34;98358.88;;;0.06;100.00
74346;BME280;62776;50.518;6.732;2024-01-27T06:53:21;98360.53;;;0.06;100.00
74346;BME280;62776;50.518;6.732;2024-01-27T06:56:07;98366.34;;;0.03;100.00
74346;BME280;62776;50.518;6.732;2024-01-27T06:58:54;98361.41;;;0.06;100.00
74346;BME280;62776;50.518;6.732;2024-01-27T07:01:46;98354.19;;;-0.01;100.00
74346;BME280;62776;50.518;6.732;2024-01-27T07:04:34;98357.38;;;0.10;100.00
74346;BME280;62776;50.518;6.732;2024-01-27T07:07:27;98353.94;;;0.09;100.00
74346;BME280;62776;50.518;6.732;2024-01-27T07:10:14;98358.81;;;-0.23;100.00
74346;BME280;62776;50.518;6.732;2024-01-27T07:13:00;98364.97;;;0.08;100.00
74346;BME280;62776;50.518;6.732;2024-01-27T07:15:46;98375.72;;;0.17;100.00
74346;BME280;62776;50.518;6.732;2024-01-27T07:18:33;98370.91;;;0.22;100.00
74346;BME280;62776;50.518;6.732;2024-01-27T07:21:21;98373.78;;;0.28;100.00
74346;BME280;62776;50.518;6.732;2024-01-27T07:24:07;98366.41;;;0.32;100.00
74346;BME280;62776;50.518;6.732;2024-01-27T07:26:53;98366.41;;;0.32;100.00
74346;BME280;62776;50.518;6.732;2024-01-27T07:29:39;98371.88;;;0.38;100.00
74346;BME280;62776;50.518;6.732;2024-01-27T07:32:28;98378.13;;;0.43;100.00
74346;BME280;62776;50.518;6.732;2024-01-27T07:35:17;98379.81;;;0.43;100.00
74346;BME280;62776;50.518;6.732;2024-01-27T07:38:03;98387.03;;;0.50;100.00
74346;BME280;62776;50.518;6.732;2024-01-27T07:40:49;98389.88;;;0.54;100.00
74346;BME280;62776;50.518;6.732;2024-01-27T07:43:36;98387.47;;;0.57;100.00
74346;BME280;62776;50.518;6.732;2024-01-27T07:46:22;98397.09;;;0.62;100.00
74346;BME280;62776;50.518;6.732;2024-01-27T07:49:09;98401.31;;;0.61;100.00
74346;BME280;62776;50.518;6.732;2024-01-27T07:51:57;98404.16;;;0.66;100.00
74346;BME280;62776;50.518;6.732;2024-01-27T07:54:44;98408.75;;;0.71;100.00
74346;BME280;62776;50.518;6.732;2024-01-27T07:57:34;98409.78;;;0.75;100.00
74346;BME280;62776;50.518;6.732;2024-01-27T08:00:21;98411.81;;;0.80;100.00
74346;BME280;62776;50.518;6.732;2024-01-27T08:03:10;98413.47;;;0.80;100.00
74346;BME280;62776;50.518;6.732;2024-01-27T08:05:56;98413.22;;;0.90;100.00
74346;BME280;62776;50.518;6.732;2024-01-27T08:08:44;98404.03;;;0.93;100.00
74346;BME280;62776;50.518;6.732;2024-01-27T08:11:30;98417.16;;;0.99;100.00
74346;BME280;62776;50.518;6.732;2024-01-27T08:14:16;98421.03;;;1.07;100.00
74346;BME280;62776;50.518;6.732;2024-01-27T08:17:03;98423.16;;;1.14;100.00
74346;BME280;62776;50.518;6.732;2024-01-27T08:19:49;98424.38;;;1.21;100.00
74346;BME280;62776;50.518;6.732;2024-01-27T08:22:36;98427.19;;;1.26;100.00
74346;BME280;62776;50.518;6.732;2024-01-27T08:25:22;98432.81;;;1.35;100.00
74346;BME280;62776;50.518;6.732;2024-01-27T08:28:10;98433.09;;;1.39;100.00
74346;BME280;62776;50.518;6.732;2024-01-27T08:31:00;98428.19;;;1.44;100.00
74346;BME280;62776;50.518;6.732;2024-01-27T08:33:48;98423.47;;;1.51;100.00
74346;BME280;62776;50.518;6.732;2024-01-27T08:36:35;98426.38;;;1.57;100.00
74346;BME280;62776;50.518;6.732;2024-01-27T08:39:22;98424.31;;;1.66;100.00
74346;BME280;62776;50.518;6.732;2024-01-27T08:42:11;98429.69;;;1.71;100.00
74346;BME280;62776;50.518;6.732;2024-01-27T08:44:58;98427.69;;;1.82;100.00
74346;BME280;62776;50.518;6.732;2024-01-27T08:47:45;98424.56;;;1.87;100.00
74346;BME280;62776;50.518;6.732;2024-01-27T08:50:35;98407.13;;;1.96;100.00
74346;BME280;62776;50.518;6.732;2024-01-27T08:53:29;98405.34;;;1.95;100.00
74346;BME280;62776;50.518;6.732;2024-01-27T08:56:16;98406.88;;;2.08;100.00
74346;BME280;62776;50.518;6.732;2024-01-27T08:59:03;98395.22;;;2.14;100.00
74346;BME280;62776;50.518;6.732;2024-01-27T09:01:49;98387.13;;;2.23;100.00
74346;BME280;62776;50.518;6.732;2024-01-27T09:04:37;98382.47;;;2.32;100.00
74346;BME280;62776;50.518;6.732;2024-01-27T09:07:24;98383.53;;;2.35;100.00
74346;BME280;62776;50.518;6.732;2024-01-27T09:10:11;98379.81;;;2.47;100.00
74346;BME280;62776;50.518;6.732;2024-01-27T09:13:00;98371.44;;;2.51;100.00
74346;BME280;62776;50.518;6.732;2024-01-27T09:15:46;98374.41;;;2.58;100.00
74346;BME280;62776;50.518;6.732;2024-01-27T09:18:42;98385.53;;;2.59;100.00
74346;BME280;62776;50.518;6.732;2024-01-27T09:21:28;98390.19;;;2.66;100.00
74346;BME280;62776;50.518;6.732;2024-01-27T09:24:18;98389.75;;;2.74;100.00
74346;BME280;62776;50.518;6.732;2024-01-27T09:27:22;98377.28;;;2.82;100.00
74346;BME280;62776;50.518;6.732;2024-01-27T09:30:09;98369.75;;;2.85;100.00
74346;BME280;62776;50.518;6.732;2024-01-27T09:32:56;98382.78;;;2.89;100.00
74346;BME280;62776;50.518;6.732;2024-01-27T09:35:42;98384.28;;;3.02;100.00
74346;BME280;62776;50.518;6.732;2024-01-27T09:38:28;98380.25;;;3.07;100.00
74346;BME280;62776;50.518;6.732;2024-01-27T09:41:15;98379.06;;;3.18;100.00
74346;BME280;62776;50.518;6.732;2024-01-27T09:44:03;98374.13;;;3.23;100.00
74346;BME280;62776;50.518;6.732;2024-01-27T09:46:51;98380.44;;;3.29;100.00
74346;BME280;62776;50.518;6.732;2024-01-27T09:49:39;98377.28;;;3.35;100.00
74346;BME280;62776;50.518;6.732;2024-01-27T09:52:25;98386.22;;;3.43;100.00
74346;BME280;62776;50.518;6.732;2024-01-27T09:55:15;98389.88;;;3.48;100.00
74346;BME280;62776;50.518;6.732;2024-01-27T09:58:02;98379.00;;;3.53;100.00
74346;BME280;62776;50.518;6.732;2024-01-27T10:00:49;98386.28;;;3.62;100.00
74346;BME280;62776;50.518;6.732;2024-01-27T10:03:40;98381.38;;;3.68;100.00
74346;BME280;62776;50.518;6.732;2024-01-27T10:06:31;98384.22;;;3.74;100.00
74346;BME280;62776;50.518;6.732;2024-01-27T10:09:18;98380.31;;;3.82;100.00
74346;BME280;62776;50.518;6.732;2024-01-27T10:12:04;98378.75;;;3.86;100.00
74346;BME280;62776;50.518;6.732;2024-01-27T10:14:51;98371.34;;;3.92;100.00
74346;BME280;62776;50.518;6.732;2024-01-27T10:17:39;98378.44;;;3.97;100.00
74346;BME280;62776;50.518;6.732;2024-01-27T10:20:29;98384.59;;;4.01;100.00
74346;BME280;62776;50.518;6.732;2024-01-27T10:23:16;98374.91;;;4.14;100.00
74346;BME280;62776;50.518;6.732;2024-01-27T10:26:02;98386.28;;;4.20;100.00
74346;BME280;62776;50.518;6.732;2024-01-27T10:28:57;98377.50;;;4.14;100.00
74346;BME280;62776;50.518;6.732;2024-01-27T10:31:43;98375.44;;;4.27;100.00
74346;BME280;62776;50.518;6.732;2024-01-27T10:34:29;98373.19;;;4.34;100.00
74346;BME280;62776;50.518;6.732;2024-01-27T10:37:25;98371.56;;;4.36;100.00
74346;BME280;62776;50.518;6.732;2024-01-27T10:40:15;98367.69;;;4.46;100.00
74346;BME280;62776;50.518;6.732;2024-01-27T10:43:06;98378.06;;;4.47;100.00
74346;BME280;62776;50.518;6.732;2024-01-27T10:45:53;98373.41;;;4.59;100.00
74346;BME280;62776;50.518;6.732;2024-01-27T10:48:41;98377.03;;;4.64;100.00
74346;BME280;62776;50.518;6.732;2024-01-27T10:51:31;98374.81;;;4.72;100.00
74346;BME280;62776;50.518;6.732;2024-01-27T10:54:24;98377.56;;;4.76;100.00
74346;BME280;62776;50.518;6.732;2024-01-27T10:57:19;98376.25;;;4.86;100.00
74346;BME280;62776;50.518;6.732;2024-01-27T11:00:08;98382.03;;;5.01;100.00
74346;BME280;62776;50.518;6.732;2024-01-27T11:02:58;98377.13;;;5.07;100.00
74346;BME280;62776;50.518;6.732;2024-01-27T11:05:47;98375.59;;;5.12;100.00
74346;BME280;62776;50.518;6.732;2024-01-27T11:08:35;98375.84;;;5.18;100.00
74346;BME280;62776;50.518;6.732;2024-01-27T11:11:21;98364.94;;;5.25;100.00
74346;BME280;62776;50.518;6.732;2024-01-27T11:14:08;98366.84;;;5.29;100.00
74346;BME280;62776;50.518;6.732;2024-01-27T11:16:57;98369.53;;;5.32;100.00
74346;BME280;62776;50.518;6.732;2024-01-27T11:19:46;98371.22;;;5.32;100.00
74346;BME280;62776;50.518;6.732;2024-01-27T11:22:33;98379.38;;;5.43;100.00
74346;BME280;62776;50.518;6.732;2024-01-27T11:25:20;98371.88;;;5.49;100.00
74346;BME280;62776;50.518;6.732;2024-01-27T11:28:14;98380.56;;;5.51;100.00
74346;BME280;62776;50.518;6.732;2024-01-27T11:31:07;98379.78;;;5.53;100.00
74346;BME280;62776;50.518;6.732;2024-01-27T11:33:54;98385.22;;;5.61;100.00
74346;BME280;62776;50.518;6.732;2024-01-27T11:36:43;98394.78;;;5.63;100.00
74346;BME280;62776;50.518;6.732;2024-01-27T11:39:31;98387.28;;;5.69;100.00
74346;BME280;62776;50.518;6.732;2024-01-27T11:42:25;98389.88;;;5.69;100.00
74346;BME280;62776;50.518;6.732;2024-01-27T11:45:11;98397.69;;;5.71;100.00
74346;BME280;62776;50.518;6.732;2024-01-27T11:47:59;98396.72;;;5.69;100.00
74346;BME280;62776;50.518;6.732;2024-01-27T11:50:46;98387.41;;;5.72;100.00
74346;BME280;62776;50.518;6.732;2024-01-27T11:53:32;98383.25;;;5.76;100.00
74346;BME280;62776;50.518;6.732;2024-01-27T11:56:22;98380.03;;;5.81;100.00
74346;BME280;62776;50.518;6.732;2024-01-27T11:59:11;98386.72;;;5.76;100.00
74346;BME280;62776;50.518;6.732;2024-01-27T12:01:58;98386.22;;;5.85;100.00
74346;BME280;62776;50.518;6.732;2024-01-27T12:04:44;98393.19;;;5.87;100.00
74346;BME280;62776;50.518;6.732;2024-01-27T12:07:31;98398.41;;;5.89;100.00
74346;BME280;62776;50.518;6.732;2024-01-27T12:10:19;98393.47;;;5.95;100.00
74346;BME280;62776;50.518;6.732;2024-01-27T12:13:08;98381.44;;;5.96;100.00
74346;BME280;62776;50.518;6.732;2024-01-27T12:15:55;98379.63;;;5.93;100.00
74346;BME280;62776;50.518;6.732;2024-01-27T12:18:41;98371.16;;;5.97;100.00
74346;BME280;62776;50.518;6.732;2024-01-27T12:21:27;98378.03;;;5.97;100.00
74346;BME280;62776;50.518;6.732;2024-01-27T12:24:16;98375.63;;;6.01;100.00
74346;BME280;62776;50.518;6.732;2024-01-27T12:27:05;98379.13;;;6.03;100.00
74346;BME280;62776;50.518;6.732;2024-01-27T12:29:52;98377.47;;;6.05;100.00
74346;BME280;62776;50.518;6.732;2024-01-27T12:32:40;98365.50;;;6.07;100.00
74346;BME280;62776;50.518;6.732;2024-01-27T12:35:29;98369.84;;;6.08;100.00
74346;BME280;62776;50.518;6.732;2024-01-27T12:38:20;98357.75;;;6.07;100.00
74346;BME280;62776;50.518;6.732;2024-01-27T12:41:06;98361.44;;;6.14;100.00
74346;BME280;62776;50.518;6.732;2024-01-27T12:43:53;98365.69;;;6.12;100.00
74346;BME280;62776;50.518;6.732;2024-01-27T12:46:44;98361.28;;;6.09;100.00
74346;BME280;62776;50.518;6.732;2024-01-27T12:49:30;98355.16;;;6.07;100.00
74346;BME280;62776;50.518;6.732;2024-01-27T12:52:17;98354.47;;;6.11;100.00
74346;BME280;62776;50.518;6.732;2024-01-27T12:55:04;98359.53;;;6.08;100.00
74346;BME280;62776;50.518;6.732;2024-01-27T12:57:51;98357.00;;;6.10;100.00
74346;BME280;62776;50.518;6.732;2024-01-27T13:00:39;98352.69;;;6.10;100.00
74346;BME280;62776;50.518;6.732;2024-01-27T13:03:26;98342.38;;;6.10;100.00
74346;BME280;62776;50.518;6.732;2024-01-27T13:06:13;98342.38;;;6.10;100.00
74346;BME280;62776;50.518;6.732;2024-01-27T13:09:00;98339.09;;;6.14;100.00
74346;BME280;62776;50.518;6.732;2024-01-27T13:11:46;98346.72;;;6.11;100.00
74346;BME280;62776;50.518;6.732;2024-01-27T13:14:32;98338.94;;;6.10;100.00
74346;BME280;62776;50.518;6.732;2024-01-27T13:17:18;98336.38;;;6.10;100.00
74346;BME280;62776;50.518;6.732;2024-01-27T13:20:05;98342.25;;;6.07;100.00
74346;BME280;62776;50.518;6.732;2024-01-27T13:22:52;98340.53;;;6.06;100.00
74346;BME280;62776;50.518;6.732;2024-01-27T13:25:39;98334.53;;;6.07;100.00
74346;BME280;62776;50.518;6.732;2024-01-27T13:28:25;98329.28;;;6.04;100.00
74346;BME280;62776;50.518;6.732;2024-01-27T13:31:12;98323.28;;;6.05;100.00
74346;BME280;62776;50.518;6.732;2024-01-27T13:33:58;98320.75;;;6.07;100.00
74346;BME280;62776;50.518;6.732;2024-01-27T13:36:44;98318.22;;;6.08;100.00
74346;BME280;62776;50.518;6.732;2024-01-27T13:39:33;98312.94;;;6.05;100.00
74346;BME280;62776;50.518;6.732;2024-01-27T13:42:20;98313.13;;;6.10;100.00
74346;BME280;62776;50.518;6.732;2024-01-27T13:45:06;98313.16;;;6.11;100.00
74346;BME280;62776;50.518;6.732;2024-01-27T13:47:55;98304.53;;;6.11;100.00
74346;BME280;62776;50.518;6.732;2024-01-27T13:50:41;98311.41;;;6.10;100.00
74346;BME280;62776;50.518;6.732;2024-01-27T13:53:28;98319.22;;;6.12;100.00
74346;BME280;62776;50.518;6.732;2024-01-27T13:56:14;98317.44;;;6.11;100.00
74346;BME280;62776;50.518;6.732;2024-01-27T13:59:01;98316.56;;;6.10;100.00
74346;BME280;62776;50.518;6.732;2024-01-27T14:01:50;98321.72;;;6.10;100.00
74346;BME280;62776;50.518;6.732;2024-01-27T14:04:39;98335.38;;;6.06;100.00
74346;BME280;62776;50.518;6.732;2024-01-27T14:07:26;98326.78;;;6.07;100.00
74346;BME280;62776;50.518;6.732;2024-01-27T14:10:12;98324.19;;;6.07;100.00
74346;BME280;62776;50.518;6.732;2024-01-27T14:13:01;98328.53;;;6.08;100.00
74346;BME280;62776;50.518;6.732;2024-01-27T14:15:50;98320.56;;;6.02;100.00
74346;BME280;62776;50.518;6.732;2024-01-27T14:18:36;98321.53;;;6.04;100.00
74346;BME280;62776;50.518;6.732;2024-01-27T14:21:22;98319.75;;;6.03;100.00
74346;BME280;62776;50.518;6.732;2024-01-27T14:24:10;98327.41;;;6.00;100.00
74346;BME280;62776;50.518;6.732;2024-01-27T14:26:56;98315.19;;;5.96;100.00
74346;BME280;62776;50.518;6.732;2024-01-27T14:29:45;98315.16;;;5.94;100.00
74346;BME280;62776;50.518;6.732;2024-01-27T14:32:32;98315.03;;;5.91;100.00
74346;BME280;62776;50.518;6.732;2024-01-27T14:35:20;98307.25;;;5.90;100.00
74346;BME280;62776;50.518;6.732;2024-01-27T14:38:07;98301.97;;;5.87;100.00
74346;BME280;62776;50.518;6.732;2024-01-27T14:41:06;98296.44;;;5.78;100.00
74346;BME280;62776;50.518;6.732;2024-01-27T14:43:56;98298.09;;;5.76;100.00
74346;BME280;62776;50.518;6.732;2024-01-27T14:47:04;98302.09;;;5.68;100.00